createdAt,value
2018-12-06T00:03:37.351Z,5.47
2018-12-06T00:08:41.847Z,5.70
2018-12-06T00:13:46.348Z,5.70
2018-12-06T00:19:07.255Z,5.20
2018-12-06T00:24:11.751Z,5.17
2018-12-06T00:29:16.317Z,6.13
2018-12-06T00:34:20.865Z,5.23
2018-12-06T00:39:25.347Z,6.03
2018-12-06T00:44:29.866Z,5.63
2018-12-06T00:49:34.443Z,5.57
2018-12-06T00:54:38.926Z,5.40
2018-12-06T00:59:43.404Z,5.20
2018-12-06T01:04:47.904Z,4.97
2018-12-06T01:09:52.392Z,5.00
2018-12-06T01:14:56.897Z,5.20
2018-12-06T01:20:01.391Z,4.87
2018-12-06T01:25:06.974Z,4.77
2018-12-06T01:30:11.457Z,3.97
2018-12-06T01:35:15.961Z,5.30
2018-12-06T01:40:20.506Z,5.07
2018-12-06T01:45:24.990Z,4.60
2018-12-06T01:50:29.510Z,5.60
2018-12-06T01:55:34.007Z,4.33
2018-12-06T02:00:38.514Z,4.47
2018-12-06T02:05:43.000Z,4.77
2018-12-06T02:10:47.481Z,4.53
2018-12-06T02:15:51.961Z,4.17
2018-12-06T02:20:56.446Z,5.13
2018-12-06T02:26:01.038Z,4.50
2018-12-06T02:31:05.518Z,4.27
2018-12-06T02:36:10.001Z,4.87
2018-12-06T02:41:14.481Z,4.43
2018-12-06T02:46:18.967Z,4.97
2018-12-06T02:51:23.466Z,4.77
2018-12-06T02:56:27.951Z,4.63
2018-12-06T03:01:32.549Z,4.37
2018-12-06T03:06:37.037Z,3.67
2018-12-06T03:11:41.519Z,4.70
2018-12-06T03:16:46.014Z,4.67
2018-12-06T03:21:50.510Z,4.00
2018-12-06T03:26:55.018Z,4.40
2018-12-06T03:31:59.522Z,4.47
2018-12-06T03:37:04.014Z,3.87
2018-12-06T03:42:08.503Z,4.27
2018-12-06T03:47:12.986Z,4.60
2018-12-06T03:52:17.487Z,4.70
2018-12-06T03:57:21.979Z,4.50
2018-12-06T04:02:26.454Z,4.10
2018-12-06T04:07:30.936Z,4.00
2018-12-06T04:12:35.435Z,4.23
2018-12-06T04:17:39.928Z,3.93
2018-12-06T04:22:44.427Z,4.40
2018-12-06T04:27:48.908Z,3.77
2018-12-06T04:32:53.400Z,5.00
2018-12-06T04:37:57.938Z,4.13
2018-12-06T04:43:02.410Z,4.33
2018-12-06T04:48:06.898Z,4.17
2018-12-06T04:53:11.378Z,4.07
2018-12-06T04:58:15.856Z,4.70
2018-12-06T05:03:20.345Z,3.93
2018-12-06T05:08:24.826Z,3.90
2018-12-06T05:13:29.318Z,4.07
2018-12-06T05:18:33.846Z,4.20
2018-12-06T05:23:38.338Z,4.10
2018-12-06T05:28:42.827Z,4.47
2018-12-06T05:33:47.310Z,3.73
2018-12-06T05:38:51.806Z,4.80
2018-12-06T05:43:56.294Z,3.93
2018-12-06T05:49:00.777Z,3.63
2018-12-06T05:54:05.279Z,4.17
2018-12-06T05:59:09.781Z,3.80
2018-12-06T06:04:14.266Z,4.50
2018-12-06T06:09:18.854Z,4.07
2018-12-06T06:14:23.352Z,4.10
2018-12-06T06:19:27.873Z,4.63
2018-12-06T06:24:32.421Z,4.10
2018-12-06T06:29:37.023Z,4.40
2018-12-06T06:34:41.506Z,4.33
2018-12-06T06:39:45.998Z,4.10
2018-12-06T06:44:50.478Z,3.80
2018-12-06T06:49:55.003Z,4.20
2018-12-06T06:55:00.087Z,4.20
2018-12-06T07:00:05.214Z,4.43
2018-12-06T07:05:09.714Z,5.20
2018-12-06T07:10:14.224Z,4.30
2018-12-06T07:15:18.718Z,3.60
2018-12-06T07:20:23.231Z,3.93
2018-12-06T07:25:29.297Z,4.13
2018-12-06T07:30:33.838Z,4.07
2018-12-06T07:35:38.335Z,4.23
2018-12-06T07:40:42.839Z,3.53
2018-12-06T07:45:47.342Z,3.70
2018-12-06T07:50:51.842Z,4.17
2018-12-06T07:55:56.421Z,3.57
2018-12-06T08:01:00.926Z,3.77
2018-12-06T08:06:05.541Z,4.30
2018-12-06T08:11:11.621Z,4.33
2018-12-06T08:16:16.128Z,5.00
2018-12-06T08:21:21.766Z,3.90
2018-12-06T08:26:26.262Z,4.40
2018-12-06T08:31:30.778Z,3.93
2018-12-06T08:36:35.295Z,3.63
2018-12-06T08:41:43.922Z,4.17
2018-12-06T08:46:54.566Z,3.93
2018-12-06T08:51:59.361Z,3.70
2018-12-06T08:57:04.230Z,4.13
2018-12-06T09:02:08.791Z,3.67
2018-12-06T09:07:16.002Z,3.43
2018-12-06T09:12:20.545Z,3.63
2018-12-06T09:17:25.064Z,3.87
2018-12-06T09:22:29.571Z,3.30
2018-12-06T09:27:34.069Z,3.50
2018-12-06T09:32:38.579Z,3.60
2018-12-06T09:37:47.142Z,3.33
2018-12-06T09:42:52.420Z,3.53
2018-12-06T09:47:57.250Z,3.77
2018-12-06T09:53:02.106Z,3.37
2018-12-06T09:58:06.599Z,3.77
2018-12-06T10:03:11.085Z,3.33
2018-12-06T10:08:15.581Z,3.80
2018-12-06T10:13:24.490Z,3.30
2018-12-06T10:18:29.713Z,3.77
2018-12-06T10:23:36.183Z,4.33
2018-12-06T10:28:41.719Z,3.93
2018-12-06T10:33:45.274Z,3.60
2018-12-06T10:38:50.668Z,3.33
2018-12-06T10:43:55.669Z,3.50
2018-12-06T10:49:01.138Z,3.90
2018-12-06T10:54:05.678Z,3.63
2018-12-06T10:59:15.534Z,3.83
2018-12-06T11:04:22.840Z,4.77
2018-12-06T11:09:27.513Z,4.07
2018-12-06T11:14:32.016Z,4.00
2018-12-06T11:19:40.002Z,3.60
2018-12-06T11:24:44.502Z,4.00
2018-12-06T11:29:49.829Z,4.23
2018-12-06T11:34:54.398Z,4.50
2018-12-06T11:39:59.721Z,3.93
2018-12-06T11:45:04.509Z,4.03
2018-12-06T11:50:09.290Z,3.77
2018-12-06T11:55:13.819Z,3.60
2018-12-06T12:00:18.350Z,4.43
2018-12-06T12:05:22.859Z,4.60
2018-12-06T12:10:29.493Z,4.47
2018-12-06T12:15:34.031Z,4.90
2018-12-06T12:20:42.618Z,4.40
2018-12-06T12:25:47.980Z,4.30
2018-12-06T12:30:52.674Z,5.00
2018-12-06T12:35:57.195Z,4.50
2018-12-06T12:41:03.945Z,4.57
2018-12-06T12:46:08.513Z,5.43
2018-12-06T12:51:13.054Z,4.70
2018-12-06T12:56:17.590Z,4.30
2018-12-06T13:01:22.320Z,4.67
2018-12-06T13:06:27.630Z,4.57
2018-12-06T13:11:33.777Z,4.60
2018-12-06T13:16:38.273Z,5.03
2018-12-06T13:21:44.622Z,4.87
2018-12-06T13:26:49.114Z,5.00
2018-12-06T13:31:54.931Z,5.33
2018-12-06T13:36:59.430Z,5.27
2018-12-06T13:42:03.927Z,4.63
2018-12-06T13:47:08.434Z,4.90
2018-12-06T13:52:12.918Z,5.53
2018-12-06T13:57:19.691Z,4.73
2018-12-06T14:02:22.011Z,5.57
2018-12-06T14:07:30.383Z,5.17
2018-12-06T14:12:34.906Z,5.10
2018-12-06T14:17:39.411Z,4.70
2018-12-06T14:22:43.941Z,4.80
2018-12-06T14:27:48.498Z,4.57
2018-12-06T14:32:53.970Z,5.63
2018-12-06T14:37:58.546Z,5.50
2018-12-06T14:43:06.594Z,5.70
2018-12-06T14:48:11.266Z,5.97
2018-12-06T14:53:15.802Z,6.60
2018-12-06T14:58:20.705Z,6.70
2018-12-06T15:03:25.309Z,7.57
2018-12-06T15:08:29.905Z,7.77
2018-12-06T15:13:35.819Z,7.57
2018-12-06T15:18:39.110Z,6.97
2018-12-06T15:23:43.639Z,6.43
2018-12-06T15:28:48.258Z,7.40
2018-12-06T15:33:54.650Z,6.93
2018-12-06T15:38:59.967Z,6.50
2018-12-06T15:44:04.534Z,7.50
2018-12-06T15:49:12.461Z,6.73
2018-12-06T15:54:16.986Z,6.93
2018-12-06T15:59:21.499Z,7.00
2018-12-06T16:04:26.034Z,6.63
2018-12-06T16:09:30.794Z,6.53
2018-12-06T16:14:35.337Z,6.70
2018-12-06T16:19:40.063Z,7.43
2018-12-06T16:24:49.082Z,7.93
2018-12-06T16:29:53.723Z,7.77
2018-12-06T16:34:58.351Z,7.83
2018-12-06T16:40:02.891Z,7.93
2018-12-06T16:45:07.847Z,8.10
2018-12-06T16:50:13.893Z,8.10
2018-12-06T16:55:18.441Z,8.23
2018-12-06T17:00:22.949Z,8.03
2018-12-06T17:05:28.253Z,7.63
2018-12-06T17:10:32.772Z,8.20
2018-12-06T17:15:37.306Z,8.73
2018-12-06T17:20:41.866Z,9.77
2018-12-06T17:25:46.394Z,8.90
2018-12-06T17:30:50.986Z,9.83
2018-12-06T17:35:55.583Z,9.83
2018-12-06T17:41:00.220Z,9.33
2018-12-06T17:46:05.983Z,10.53
2018-12-06T17:51:10.499Z,10.00
2018-12-06T17:56:15.037Z,10.27
2018-12-06T18:01:19.616Z,11.43
2018-12-06T18:06:28.619Z,10.57
2018-12-06T18:11:33.591Z,11.00
2018-12-06T18:16:38.593Z,10.57
2018-12-06T18:21:43.521Z,11.57
2018-12-06T18:26:49.811Z,10.77
2018-12-06T18:31:56.111Z,11.73
2018-12-06T18:37:00.685Z,11.87
2018-12-06T18:42:05.243Z,12.17
2018-12-06T18:47:09.783Z,12.70
2018-12-06T18:52:14.360Z,12.67
2018-12-06T18:57:22.987Z,12.43
2018-12-06T19:02:27.532Z,12.17
2018-12-06T19:07:32.846Z,12.47
2018-12-06T19:12:37.553Z,12.80
2018-12-06T19:17:42.093Z,12.93
2018-12-06T19:22:46.645Z,11.70
2018-12-06T19:27:51.998Z,12.83
2018-12-06T19:32:58.004Z,12.70
2018-12-06T19:38:01.206Z,12.37
2018-12-06T19:43:05.761Z,14.07
2018-12-06T19:48:11.217Z,13.30
2018-12-06T19:53:15.758Z,14.67
2018-12-06T19:58:20.300Z,14.07
2018-12-06T20:03:24.895Z,13.63
2018-12-06T20:08:29.462Z,13.43
2018-12-06T20:13:34.094Z,14.40
2018-12-06T20:18:39.628Z,14.77
2018-12-06T20:23:44.167Z,13.33
2018-12-06T20:28:48.754Z,16.47
2018-12-06T20:33:53.341Z,13.93
2018-12-06T20:38:57.922Z,15.10
2018-12-06T20:44:02.449Z,14.97
2018-12-06T20:49:06.998Z,15.07
2018-12-06T21:03:52.256Z,14.23
2018-12-06T21:08:56.782Z,14.57
2018-12-06T21:14:01.402Z,15.20
2018-12-06T21:19:06.038Z,15.57
2018-12-06T21:24:10.573Z,15.63
2018-12-06T21:29:15.187Z,16.13
2018-12-06T21:34:20.013Z,16.40
2018-12-06T21:39:24.554Z,17.97
2018-12-06T21:44:29.081Z,16.93
2018-12-06T21:49:33.685Z,17.27
2018-12-06T21:54:38.242Z,16.93
2018-12-06T21:59:42.778Z,16.67
2018-12-06T22:04:47.313Z,16.17
2018-12-06T22:09:51.854Z,16.77
2018-12-06T22:14:56.542Z,15.20
2018-12-06T22:20:01.135Z,16.07
2018-12-06T22:25:05.798Z,16.77
2018-12-06T22:30:11.725Z,15.53
2018-12-06T22:35:14.938Z,16.93
2018-12-06T22:40:19.467Z,16.43
2018-12-06T22:46:28.210Z,15.90
2018-12-06T22:51:32.731Z,16.37
2018-12-06T22:56:37.326Z,16.77
2018-12-06T23:01:41.911Z,18.07
2018-12-06T23:06:46.406Z,17.70
2018-12-06T23:11:50.916Z,17.53
2018-12-06T23:16:55.474Z,18.33
2018-12-06T23:21:59.972Z,18.63
2018-12-06T23:27:04.546Z,19.20
2018-12-06T23:32:09.153Z,18.70
2018-12-06T23:37:13.710Z,18.03
2018-12-06T23:42:18.213Z,17.20
2018-12-06T23:47:22.707Z,17.17
2018-12-06T23:52:27.234Z,16.17
2018-12-06T23:57:31.738Z,14.77
